Time;durP1;ratioP1;P1;durP2;ratioP2;P2;SDS_P1;SDS_P2;PMS_P1;PMS_P2;Temp;Humidity;BMP_temperature;BMP_pressure;BME280_temperature;BME280_humidity;BME280_pressure;Samples;Min_cycle;Max_cycle;Signal;HPM_P1;HPM_P2
2023/06/02 00:00:38;;;;;;;1.90;0.38;;;;;;;-147.53;100.00;57128.34;10058244;29;20561;-80
2023/06/02 00:05:40;;;;;;;3.30;0.60;;;;;;;-147.53;100.00;57128.34;10059384;29;20098;-80
2023/06/02 00:10:42;;;;;;;6.63;0.63;;;;;;;-147.53;100.00;57128.34;10057800;29;20083;-80
2023/06/02 00:15:44;;;;;;;0.40;0.32;;;;;;;-147.53;100.00;57128.34;10059681;29;20503;-80
2023/06/02 00:20:46;;;;;;;1.05;0.55;;;;;;;-147.53;100.00;57128.34;10060123;29;20084;-80
2023/06/02 00:25:48;;;;;;;2.28;0.63;;;;;;;-147.53;100.00;57128.34;10057477;29;20071;-80
2023/06/02 00:30:50;;;;;;;1.17;0.63;;;;;;;-147.53;100.00;57128.34;10052934;29;20050;-80
2023/06/02 00:35:51;;;;;;;1.02;0.70;;;;;;;-147.53;100.00;57128.34;10042285;29;20076;-81
2023/06/02 00:40:53;;;;;;;0.30;0.30;;;;;;;-147.53;100.00;57128.34;10032401;29;20049;-80
2023/06/02 00:45:54;;;;;;;0.47;0.47;;;;;;;-147.53;100.00;57128.34;10043599;29;20064;-80
2023/06/02 00:50:56;;;;;;;9.93;0.77;;;;;;;-147.53;100.00;57128.34;10058337;29;20053;-80
2023/06/02 00:56:00;;;;;;;2.72;0.55;;;;;;;-147.53;100.00;57128.34;10038193;29;20045;-80
2023/06/02 01:01:02;;;;;;;0.47;0.43;;;;;;;-147.53;100.00;57128.34;10059971;29;20088;-81
2023/06/02 01:06:05;;;;;;;1.55;0.60;;;;;;;-147.53;100.00;57128.34;10032430;29;20060;-79
2023/06/02 01:11:08;;;;;;;0.15;0.15;;;;;;;-147.53;100.00;57128.34;10065615;29;20049;-80
2023/06/02 01:16:13;;;;;;;0.40;0.40;;;;;;;-147.53;100.00;57128.34;10063809;29;20057;-81
2023/06/02 01:21:22;;;;;;;0.70;0.57;;;;;;;-147.53;100.00;57128.34;10064653;29;20106;-81
2023/06/02 01:26:25;;;;;;;0.90;0.70;;;;;;;-147.53;100.00;57128.34;10066957;29;20057;-81
2023/06/02 01:31:34;;;;;;;2.83;1.30;;;;;;;-147.53;100.00;57128.34;10045471;29;20057;-81
2023/06/02 01:36:38;;;;;;;4.13;0.40;;;;;;;-147.53;100.00;57128.34;10062096;29;20145;-80
2023/06/02 01:41:43;;;;;;;0.70;0.30;;;;;;;-147.53;100.00;57128.34;10046974;29;20140;-81
2023/06/02 01:46:44;;;;;;;2.28;0.57;;;;;;;-147.53;100.00;57128.34;10050487;29;20069;-81
2023/06/02 01:51:46;;;;;;;0.88;0.70;;;;;;;-147.53;100.00;57128.34;10059839;29;20053;-80
2023/06/02 01:56:48;;;;;;;1.80;0.95;;;;;;;-147.53;100.00;57128.34;10062043;29;20053;-80
2023/06/02 02:01:50;;;;;;;9.82;0.90;;;;;;;-147.53;100.00;57128.34;10043579;29;20481;-80
2023/06/02 02:06:52;;;;;;;1.33;0.32;;;;;;;-147.53;100.00;57128.34;10062012;29;20082;-80
2023/06/02 02:11:53;;;;;;;1.42;0.73;;;;;;;-147.53;100.00;57128.34;10065524;29;20322;-81
2023/06/02 02:17:00;;;;;;;1.42;0.68;;;;;;;-147.53;100.00;57128.34;10045265;29;20057;-81
2023/06/02 02:22:02;;;;;;;4.05;0.63;;;;;;;-147.53;100.00;57128.34;10046837;29;20121;-80
2023/06/02 02:27:04;;;;;;;0.52;0.32;;;;;;;-147.53;100.00;57128.34;10047127;29;20428;-81
2023/06/02 02:32:06;;;;;;;1.67;0.85;;;;;;;-147.53;100.00;57128.34;10062518;29;20116;-81
2023/06/02 02:37:10;;;;;;;1.00;0.43;;;;;;;-147.53;100.00;57128.34;10046275;29;20069;-81
2023/06/02 02:42:12;;;;;;;0.90;0.70;;;;;;;-147.53;100.00;57128.34;10046894;29;20059;-81
2023/06/02 02:47:14;;;;;;;4.45;0.68;;;;;;;-147.53;100.00;57128.34;10062416;29;20082;-81
2023/06/02 02:52:16;;;;;;;0.47;0.47;;;;;;;-147.53;100.00;57128.34;10044764;29;20053;-80
2023/06/02 02:57:17;;;;;;;0.30;0.30;;;;;;;-147.53;100.00;57128.34;10048470;29;20092;-80
2023/06/02 03:02:19;;;;;;;0.90;0.80;;;;;;;-147.53;100.00;57128.34;10045418;29;20058;-80
2023/06/02 03:07:21;;;;;;;1.88;1.17;;;;;;;-147.53;100.00;57128.34;10062558;29;20057;-80
2023/06/02 03:12:22;;;;;;;0.98;0.68;;;;;;;-147.53;100.00;57128.34;10041211;29;20057;-81
2023/06/02 03:17:24;;;;;;;1.00;0.63;;;;;;;-147.53;100.00;57128.34;10058314;29;20077;-80
2023/06/02 03:22:28;;;;;;;2.53;0.68;;;;;;;-147.53;100.00;57128.34;10047123;29;20057;-80
2023/06/02 03:27:32;;;;;;;1.88;0.55;;;;;;;-147.53;100.00;57128.34;10034861;29;20590;-81
2023/06/02 03:32:33;;;;;;;3.47;0.90;;;;;;;-147.53;100.00;57128.34;10047364;29;20061;-81
2023/06/02 03:37:36;;;;;;;4.95;3.80;;;;;;;-147.53;100.00;57128.34;10051018;29;20057;-80
2023/06/02 03:42:38;;;;;;;1.73;1.02;;;;;;;-147.53;100.00;57128.34;10051460;29;20067;-81
2023/06/02 03:47:42;;;;;;;0.47;0.35;;;;;;;-147.53;100.00;57128.34;10044680;29;20428;-80
2023/06/02 03:52:47;;;;;;;2.00;0.95;;;;;;;-147.53;100.00;57128.34;10052342;29;20081;-81
2023/06/02 03:57:49;;;;;;;5.15;1.38;;;;;;;-147.53;100.00;57128.34;10043734;29;20091;-81
2023/06/02 04:02:50;;;;;;;4.30;1.52;;;;;;;-147.53;100.00;57128.34;10052407;29;20064;-81
2023/06/02 04:07:53;;;;;;;2.05;0.40;;;;;;;-147.53;100.00;57128.34;10054218;29;20600;-80
2023/06/02 04:12:58;;;;;;;0.63;0.50;;;;;;;-147.53;100.00;57128.34;10046937;29;20049;-80
2023/06/02 04:18:00;;;;;;;8.60;7.50;;;;;;;-147.53;100.00;57128.34;10042854;29;20084;-81
2023/06/02 04:23:02;;;;;;;15.55;14.32;;;;;;;-147.53;100.00;57128.34;10047241;29;20050;-81
2023/06/02 04:28:05;;;;;;;10.55;5.72;;;;;;;-147.53;100.00;57128.34;10044263;29;20081;-80
2023/06/02 04:33:08;;;;;;;3.30;2.35;;;;;;;-147.53;100.00;57128.34;10046260;29;20050;-81
2023/06/02 04:38:12;;;;;;;14.15;12.95;;;;;;;-147.53;100.00;57128.34;10031765;29;20080;-80
2023/06/02 04:43:14;;;;;;;3.10;1.80;;;;;;;-147.53;100.00;57128.34;10055071;29;20065;-80
2023/06/02 04:48:17;;;;;;;1.50;1.15;;;;;;;-147.53;100.00;57128.34;10046385;29;20064;-80
2023/06/02 04:53:19;;;;;;;6.00;1.05;;;;;;;-147.53;100.00;57128.34;10034556;29;20563;-80
2023/06/02 04:58:21;;;;;;;2.78;1.33;;;;;;;-147.53;100.00;57128.34;10053400;29;20058;-81
2023/06/02 05:03:23;;;;;;;5.88;1.38;;;;;;;-147.53;100.00;57128.34;10052144;29;20164;-81
2023/06/02 05:08:25;;;;;;;4.30;2.58;;;;;;;-147.53;100.00;57128.34;10061600;29;20063;-78
2023/06/02 05:13:28;;;;;;;4.25;2.17;;;;;;;-147.53;100.00;57128.34;10046512;29;20076;-81
2023/06/02 05:18:32;;;;;;;2.75;2.03;;;;;;;-147.53;100.00;57128.34;10032310;29;20053;-81
2023/06/02 05:23:36;;;;;;;8.30;7.47;;;;;;;-147.53;100.00;57128.34;10039612;29;20065;-81
2023/06/02 05:28:38;;;;;;;4.50;2.83;;;;;;;-147.53;100.00;57128.34;10068853;29;20148;-81
2023/06/02 05:33:40;;;;;;;7.82;3.40;;;;;;;-147.53;100.00;57128.34;10051617;29;20057;-81
2023/06/02 05:38:43;;;;;;;2.35;1.27;;;;;;;-147.53;100.00;57128.34;10048494;29;20096;-80
2023/06/02 05:43:47;;;;;;;4.22;1.90;;;;;;;-147.53;100.00;57128.34;10058028;29;20064;-81
2023/06/02 05:48:49;;;;;;;3.00;1.10;;;;;;;-147.53;100.00;57128.34;10039185;29;20068;-82
2023/06/02 05:53:52;;;;;;;2.72;2.05;;;;;;;-147.53;100.00;57128.34;10045463;29;20079;-81
2023/06/02 05:58:55;;;;;;;3.55;1.85;;;;;;;-147.53;100.00;57128.34;10063731;29;20061;-82
2023/06/02 06:03:56;;;;;;;4.45;2.20;;;;;;;-147.53;100.00;57128.34;10047772;29;20687;-81
2023/06/02 06:08:58;;;;;;;4.88;3.42;;;;;;;-147.53;100.00;57128.34;10043866;29;20050;-81
2023/06/02 06:14:02;;;;;;;3.40;2.95;;;;;;;-147.53;100.00;57128.34;10047948;29;20088;-82
2023/06/02 06:19:04;;;;;;;2.65;1.63;;;;;;;-147.53;100.00;57128.34;10048226;29;20065;-81
2023/06/02 06:24:06;;;;;;;5.85;2.85;;;;;;;-147.53;100.00;57128.34;10063735;29;20587;-81
2023/06/02 06:29:08;;;;;;;5.25;3.47;;;;;;;-147.53;100.00;57128.34;10031962;29;20076;-81
2023/06/02 06:34:10;;;;;;;14.13;11.52;;;;;;;-147.53;100.00;57128.34;10041703;29;20072;-81
2023/06/02 06:39:12;;;;;;;40.40;37.30;;;;;;;-147.53;100.00;57128.34;10047670;29;20071;-81
2023/06/02 06:44:14;;;;;;;102.88;95.90;;;;;;;-147.53;100.00;57128.34;10065978;29;20071;-80
2023/06/02 06:49:16;;;;;;;29.95;27.48;;;;;;;-147.53;100.00;57128.34;10052043;29;20092;-80
2023/06/02 06:54:18;;;;;;;22.48;20.20;;;;;;;-147.53;100.00;57128.34;10046925;29;20086;-79
2023/06/02 06:59:19;;;;;;;16.70;10.32;;;;;;;-147.53;100.00;57128.34;10064691;29;20056;-80
2023/06/02 07:04:21;;;;;;;6.78;5.63;;;;;;;-147.53;100.00;57128.34;10067205;29;20702;-80
2023/06/02 07:09:23;;;;;;;16.13;11.95;;;;;;;-147.53;100.00;57128.34;10063533;29;20057;-80
2023/06/02 07:14:27;;;;;;;28.92;26.48;;;;;;;-147.53;100.00;57128.34;10060596;29;20049;-79
2023/06/02 07:19:28;;;;;;;36.03;33.13;;;;;;;-147.53;100.00;57128.34;10057073;29;20631;-79
2023/06/02 07:24:30;;;;;;;14.88;12.18;;;;;;;-147.53;100.00;57128.34;10061678;29;20054;-80
2023/06/02 07:29:31;;;;;;;8.23;4.72;;;;;;;-147.53;100.00;57128.34;10046993;29;20054;-81
2023/06/02 07:34:33;;;;;;;27.73;12.13;;;;;;;-147.53;100.00;57128.34;10049879;29;20050;-81
2023/06/02 07:39:34;;;;;;;8.43;5.85;;;;;;;-147.53;100.00;57128.34;10025487;29;20077;-81
2023/06/02 07:44:36;;;;;;;25.85;23.45;;;;;;;-147.53;100.00;57128.34;10022135;29;20440;-80
2023/06/02 07:49:38;;;;;;;12.88;11.02;;;;;;;-147.53;100.00;57128.34;10032342;29;20064;-80
2023/06/02 07:54:40;;;;;;;30.02;27.38;;;;;;;-147.53;100.00;57128.34;10017243;29;20499;-78
2023/06/02 07:59:41;;;;;;;54.53;50.03;;;;;;;-147.53;100.00;57128.34;10018335;29;20063;-80
2023/06/02 08:04:43;;;;;;;254.45;236.55;;;;;;;-147.53;100.00;57128.34;10013289;29;20080;-80
2023/06/02 08:09:45;;;;;;;10.45;5.68;;;;;;;-147.53;100.00;57128.34;10018636;29;20080;-83
2023/06/02 08:14:46;;;;;;;7.28;6.53;;;;;;;-147.53;100.00;57128.34;10002890;29;20073;-80
2023/06/02 08:19:48;;;;;;;9.00;7.68;;;;;;;-147.53;100.00;57128.34;10014522;29;20050;-80
2023/06/02 08:24:50;;;;;;;21.73;19.80;;;;;;;-147.53;100.00;57128.34;10023265;29;20056;-79
2023/06/02 08:29:53;;;;;;;16.63;14.95;;;;;;;-147.53;100.00;57128.34;10001194;29;20536;-79
2023/06/02 08:35:00;;;;;;;65.15;60.10;;;;;;;-147.53;100.00;57128.34;10044238;29;20111;-79
2023/06/02 08:40:04;;;;;;;84.38;77.93;;;;;;;-147.53;100.00;57128.34;10044884;29;20049;-79
2023/06/02 08:45:06;;;;;;;24.92;22.35;;;;;;;-147.53;100.00;57128.34;10057093;29;20057;-80
2023/06/02 08:50:09;;;;;;;26.10;22.90;;;;;;;-147.53;100.00;57128.34;10028006;29;20083;-80
2023/06/02 08:55:11;;;;;;;11.75;10.60;;;;;;;-147.53;100.00;57128.34;10041598;29;20097;-79
2023/06/02 09:00:13;;;;;;;24.58;22.23;;;;;;;-147.53;100.00;57128.34;10017724;29;20127;-79
2023/06/02 09:05:16;;;;;;;23.15;20.92;;;;;;;-147.53;100.00;57128.34;10025266;29;20140;-83
2023/06/02 09:10:40;;;;;;;35.03;31.88;;;;;;;-147.53;100.00;57128.34;10043466;29;20050;-82
2023/06/02 09:15:58;;;;;;;55.63;51.13;;;;;;;-147.53;100.00;57128.34;10039602;29;20061;-80
2023/06/02 09:21:00;;;;;;;577.22;538.70;;;;;;;-147.53;100.00;57128.34;10035115;29;20065;-81
2023/06/02 09:26:02;;;;;;;5.00;2.80;;;;;;;-147.53;100.00;57128.34;10064867;29;20058;-81
2023/06/02 09:31:13;;;;;;;2.20;1.65;;;;;;;-147.53;100.00;57128.34;10041433;29;20061;-81
2023/06/02 09:36:29;;;;;;;46.83;43.17;;;;;;;-147.53;100.00;57128.34;10041315;29;20057;-80
2023/06/02 09:41:31;;;;;;;21.00;12.10;;;;;;;-147.53;100.00;57128.34;10053471;29;20082;-82
2023/06/02 09:46:40;;;;;;;3.20;1.80;;;;;;;-147.53;100.00;57128.34;10044053;29;20062;-80
2023/06/02 09:51:42;;;;;;;13.52;7.43;;;;;;;-147.53;100.00;57128.34;10049814;29;20076;-80
2023/06/02 09:56:45;;;;;;;1.65;1.42;;;;;;;-147.53;100.00;57128.34;10044546;29;20057;-80
2023/06/02 10:01:48;;;;;;;1.98;0.82;;;;;;;-147.53;100.00;57128.34;10041574;29;20057;-83
2023/06/02 10:07:28;;;;;;;3.83;1.00;;;;;;;-147.53;100.00;57128.34;10074517;29;20065;-83
2023/06/02 10:19:29;;;;;;;2.13;2.00;;;;;;;-147.53;100.00;57128.34;10023384;29;20081;-88
2023/06/02 10:25:16;;;;;;;1.92;1.83;;;;;;;-147.53;100.00;57128.34;10020960;29;20046;-82
2023/06/02 10:30:20;;;;;;;4.25;2.05;;;;;;;-147.53;100.00;57128.34;10011523;29;20055;-84
2023/06/02 10:35:22;;;;;;;2.45;1.10;;;;;;;-147.53;100.00;57128.34;10036484;29;20084;-81
2023/06/02 10:40:50;;;;;;;1.98;0.80;;;;;;;-147.53;100.00;57128.34;10028347;29;20519;-82
2023/06/02 10:45:52;;;;;;;2.53;1.33;;;;;;;-147.53;100.00;57128.34;10017358;29;20134;-83
2023/06/02 10:50:54;;;;;;;3.80;1.60;;;;;;;-147.53;100.00;57128.34;10007381;29;20527;-82
2023/06/02 10:55:56;;;;;;;4.05;3.05;;;;;;;-147.53;100.00;57128.34;10017974;29;20133;-80
2023/06/02 11:00:58;;;;;;;4.50;3.13;;;;;;;-147.53;100.00;57128.34;10029928;29;20090;-81
2023/06/02 11:06:18;;;;;;;5.05;4.43;;;;;;;-147.53;100.00;57128.34;10037189;29;20060;-83
2023/06/02 11:11:54;;;;;;;3.83;1.80;;;;;;;-147.53;100.00;57128.34;10025446;29;20084;-79
2023/06/02 11:17:29;;;;;;;2.85;1.15;;;;;;;-147.53;100.00;57128.34;10037190;29;20765;-81
2023/06/02 11:22:33;;;;;;;2.22;0.98;;;;;;;-147.53;100.00;57128.34;10038569;29;20060;-80
2023/06/02 11:27:45;;;;;;;3.08;1.20;;;;;;;-147.53;100.00;57128.34;10040022;29;20053;-81
2023/06/02 11:32:51;;;;;;;7.40;1.08;;;;;;;-147.53;100.00;57128.34;10033479;29;20053;-80
2023/06/02 11:38:02;;;;;;;2.88;1.10;;;;;;;-147.53;100.00;57128.34;10034032;29;20067;-81
2023/06/02 11:43:04;;;;;;;3.63;1.35;;;;;;;-147.53;100.00;57128.34;10025602;29;20046;-80
2023/06/02 11:48:11;;;;;;;3.03;1.10;;;;;;;-147.53;100.00;57128.34;10028482;29;20149;-79
2023/06/02 11:53:14;;;;;;;5.53;1.00;;;;;;;-147.53;100.00;57128.34;10023156;29;20082;-80
2023/06/02 11:58:24;;;;;;;2.92;1.13;;;;;;;-147.53;100.00;57128.34;10040335;29;20487;-79
2023/06/02 12:03:25;;;;;;;1.98;1.13;;;;;;;-147.53;100.00;57128.34;10037745;29;20424;-80
2023/06/02 12:08:27;;;;;;;3.80;0.95;;;;;;;-147.53;100.00;57128.34;10046297;29;20068;-79
2023/06/02 12:13:32;;;;;;;3.38;1.02;;;;;;;-147.53;100.00;57128.34;10041489;29;20148;-79
2023/06/02 12:18:34;;;;;;;1.40;0.77;;;;;;;-147.53;100.00;57128.34;10041611;29;20702;-79
2023/06/02 12:23:44;;;;;;;2.33;0.93;;;;;;;-147.53;100.00;57128.34;10045282;29;20069;-79
2023/06/02 12:28:46;;;;;;;5.45;0.98;;;;;;;-147.53;100.00;57128.34;10045341;29;20481;-80
2023/06/02 12:33:48;;;;;;;2.28;0.85;;;;;;;-147.53;100.00;57128.34;10044318;29;20136;-80
2023/06/02 12:38:49;;;;;;;2.85;1.25;;;;;;;-147.53;100.00;57128.34;10055278;29;20587;-82
2023/06/02 12:43:51;;;;;;;1.67;1.08;;;;;;;-147.53;100.00;57128.34;10037543;29;20362;-83
2023/06/02 12:48:53;;;;;;;9.52;1.20;;;;;;;-147.53;100.00;57128.34;10038371;29;20087;-84
2023/06/02 12:53:55;;;;;;;3.78;1.20;;;;;;;-147.53;100.00;57128.34;10021838;29;20062;-81
2023/06/02 12:58:56;;;;;;;6.25;1.35;;;;;;;-147.53;100.00;57128.34;10027069;29;20153;-83
2023/06/02 13:03:59;;;;;;;3.72;1.13;;;;;;;-147.53;100.00;57128.34;10053221;29;20109;-82
2023/06/02 13:09:02;;;;;;;3.08;0.90;;;;;;;-147.53;100.00;57128.34;10059233;29;20077;-82
2023/06/02 13:14:04;;;;;;;7.68;1.50;;;;;;;-147.53;100.00;57128.34;10057922;29;20065;-81
2023/06/02 13:19:05;;;;;;;4.28;1.75;;;;;;;-147.53;100.00;57128.34;10066264;29;20413;-83
2023/06/02 13:24:07;;;;;;;3.80;2.65;;;;;;;-147.53;100.00;57128.34;10074044;29;20057;-82
2023/06/02 13:29:09;;;;;;;4.68;3.78;;;;;;;-147.53;100.00;57128.34;10071994;29;20436;-85
2023/06/02 13:34:10;;;;;;;2.25;1.40;;;;;;;-147.53;100.00;57128.34;10059344;29;20436;-85
2023/06/02 13:39:14;;;;;;;4.00;2.13;;;;;;;-147.53;100.00;57128.34;10068473;29;20089;-82
2023/06/02 13:44:22;;;;;;;3.85;1.60;;;;;;;-147.53;100.00;57128.34;10047312;29;20417;-80
2023/06/02 13:49:23;;;;;;;5.60;1.65;;;;;;;-147.53;100.00;57128.34;10055933;29;20057;-80
2023/06/02 13:54:25;;;;;;;6.15;1.33;;;;;;;-147.53;100.00;57128.34;10040941;29;20057;-79
2023/06/02 13:59:27;;;;;;;3.90;1.77;;;;;;;-147.53;100.00;57128.34;10055021;29;20190;-81
2023/06/02 14:04:28;;;;;;;5.35;2.30;;;;;;;-147.53;100.00;57128.34;10052258;29;20473;-77
2023/06/02 14:09:30;;;;;;;2.53;1.20;;;;;;;-147.53;100.00;57128.34;10048419;29;20133;-77
2023/06/02 14:14:31;;;;;;;3.60;0.98;;;;;;;-147.53;100.00;57128.34;10050877;29;20141;-79
2023/06/02 14:19:33;;;;;;;6.30;1.70;;;;;;;-147.53;100.00;57128.34;10036975;29;20133;-79
2023/06/02 14:24:35;;;;;;;6.28;2.33;;;;;;;-147.53;100.00;57128.34;10058690;29;20053;-80
2023/06/02 14:29:36;;;;;;;2.95;1.60;;;;;;;-147.53;100.00;57128.34;10056349;29;20069;-82
2023/06/02 14:34:38;;;;;;;7.30;1.50;;;;;;;-147.53;100.00;57128.34;10037610;29;20144;-82
2023/06/02 14:39:39;;;;;;;2.42;1.63;;;;;;;-147.53;100.00;57128.34;10036239;29;20643;-81
2023/06/02 14:44:41;;;;;;;5.32;4.32;;;;;;;-147.53;100.00;57128.34;10052024;29;20058;-82
2023/06/02 14:49:42;;;;;;;2.92;2.33;;;;;;;-147.53;100.00;57128.34;10045679;29;20084;-78
2023/06/02 14:54:44;;;;;;;4.15;2.88;;;;;;;-147.53;100.00;57128.34;10052652;29;20037;-79
2023/06/02 14:59:46;;;;;;;3.25;2.88;;;;;;;-147.53;100.00;57128.34;10057482;29;20045;-79
2023/06/02 15:04:48;;;;;;;3.97;1.15;;;;;;;-147.53;100.00;57128.34;10036594;29;20500;-80
2023/06/02 15:09:49;;;;;;;1.48;0.98;;;;;;;-147.53;100.00;57128.34;10050519;29;20098;-79
2023/06/02 15:14:51;;;;;;;1.77;0.93;;;;;;;-147.53;100.00;57128.34;10057558;29;20078;-80
2023/06/02 15:19:52;;;;;;;4.93;1.00;;;;;;;-147.53;100.00;57128.34;10037512;29;20105;-80
2023/06/02 15:24:54;;;;;;;1.83;1.00;;;;;;;-147.53;100.00;57128.34;10053908;29;20057;-79
2023/06/02 15:29:56;;;;;;;3.63;1.38;;;;;;;-147.53;100.00;57128.34;10065665;29;20571;-80
2023/06/02 15:34:57;;;;;;;13.75;11.63;;;;;;;-147.53;100.00;57128.34;10062100;29;20064;-79
2023/06/02 15:39:59;;;;;;;10.80;9.77;;;;;;;-147.53;100.00;57128.34;10052712;29;20117;-81
2023/06/02 15:45:02;;;;;;;24.25;22.15;;;;;;;-147.53;100.00;57128.34;10032832;29;20056;-88
2023/06/02 15:50:04;;;;;;;179.60;167.23;;;;;;;-147.53;100.00;57128.34;10048379;29;20072;-83
2023/06/02 15:55:06;;;;;;;164.82;153.20;;;;;;;-147.53;100.00;57128.34;10050675;29;20144;-82
2023/06/02 16:00:08;;;;;;;129.23;120.20;;;;;;;-147.53;100.00;57128.34;10051365;29;20164;-79
2023/06/02 16:05:12;;;;;;;118.05;109.50;;;;;;;-147.53;100.00;57128.34;10041472;29;20054;-82
2023/06/02 16:10:13;;;;;;;54.78;50.08;;;;;;;-147.53;100.00;57128.34;10052797;29;20061;-84
2023/06/02 16:15:15;;;;;;;32.90;29.98;;;;;;;-147.53;100.00;57128.34;10028206;29;20081;-88
2023/06/02 16:20:17;;;;;;;49.15;45.13;;;;;;;-147.53;100.00;57128.34;10045704;29;20065;-83
2023/06/02 16:25:19;;;;;;;152.63;141.40;;;;;;;-147.53;100.00;57128.34;10046142;29;20054;-83
2023/06/02 16:30:23;;;;;;;101.28;93.97;;;;;;;-147.53;100.00;57128.34;10032219;29;20062;-84
2023/06/02 16:35:25;;;;;;;97.28;89.45;;;;;;;-147.53;100.00;57128.34;10031387;29;20845;-83
2023/06/02 16:40:26;;;;;;;12.32;11.02;;;;;;;-147.53;100.00;57128.34;10036345;29;20137;-82
2023/06/02 16:45:28;;;;;;;26.08;23.63;;;;;;;-147.53;100.00;57128.34;10038728;29;20081;-84
2023/06/02 16:50:31;;;;;;;25.00;22.52;;;;;;;-147.53;100.00;57128.34;10042045;29;20569;-83
2023/06/02 16:55:32;;;;;;;37.90;34.20;;;;;;;-147.53;100.00;57128.34;10023552;29;20105;-82
2023/06/02 17:00:34;;;;;;;41.40;38.05;;;;;;;-147.53;100.00;57128.34;10047076;29;20656;-84
2023/06/02 17:05:36;;;;;;;44.47;40.97;;;;;;;-147.53;100.00;57128.34;10029823;29;20068;-82
2023/06/02 17:10:38;;;;;;;50.45;46.42;;;;;;;-147.53;100.00;57128.34;10044128;29;20132;-84
2023/06/02 17:15:40;;;;;;;55.50;51.25;;;;;;;-147.53;100.00;57128.34;10040733;29;20083;-85
2023/06/02 17:20:41;;;;;;;61.25;56.22;;;;;;;-147.53;100.00;57128.34;10029279;29;20136;-85
2023/06/02 17:25:44;;;;;;;69.95;64.35;;;;;;;-147.53;100.00;57128.34;10016498;29;20190;-85
2023/06/02 17:30:45;;;;;;;75.95;70.18;;;;;;;-147.53;100.00;57128.34;10014734;29;20136;-85
2023/06/02 17:35:47;;;;;;;53.65;49.60;;;;;;;-147.53;100.00;57128.34;10046115;29;20086;-84
2023/06/02 17:40:49;;;;;;;99.65;91.47;;;;;;;-147.53;100.00;57128.34;10042492;29;20064;-84
2023/06/02 17:45:51;;;;;;;94.07;87.15;;;;;;;-147.53;100.00;57128.34;10029944;29;20119;-84
2023/06/02 17:50:53;;;;;;;121.55;112.35;;;;;;;-147.53;100.00;57128.34;10040781;29;20128;-85
2023/06/02 17:55:55;;;;;;;217.63;202.98;;;;;;;-147.53;100.00;57128.34;10033957;29;20058;-84
2023/06/02 18:00:57;;;;;;;246.80;229.98;;;;;;;-147.53;100.00;57128.34;10023697;29;20816;-83
2023/06/02 18:05:59;;;;;;;233.98;218.43;;;;;;;-147.53;100.00;57128.34;10048390;29;20064;-84
2023/06/02 18:11:01;;;;;;;340.60;319.27;;;;;;;-147.53;100.00;57128.34;10035237;29;20078;-84
2023/06/02 18:16:04;;;;;;;55.05;51.08;;;;;;;-147.53;100.00;57128.34;10045996;29;20068;-85
2023/06/02 18:21:05;;;;;;;34.28;31.33;;;;;;;-147.53;100.00;57128.34;10024162;29;20045;-84
2023/06/02 18:26:10;;;;;;;19.75;17.98;;;;;;;-147.53;100.00;57128.34;10036942;29;20527;-84
2023/06/02 18:31:11;;;;;;;15.05;13.45;;;;;;;-147.53;100.00;57128.34;10041329;29;20076;-85
2023/06/02 18:36:13;;;;;;;33.92;31.17;;;;;;;-147.53;100.00;57128.34;10040331;29;20125;-84
2023/06/02 18:41:15;;;;;;;39.13;35.58;;;;;;;-147.53;100.00;57128.34;10018970;29;20057;-85
2023/06/02 18:46:17;;;;;;;56.22;51.95;;;;;;;-147.53;100.00;57128.34;10041532;29;20066;-84
2023/06/02 18:51:19;;;;;;;14.32;12.82;;;;;;;-147.53;100.00;57128.34;10038333;29;20103;-84
2023/06/02 18:56:22;;;;;;;25.10;23.08;;;;;;;-147.53;100.00;57128.34;10014576;29;20129;-86
2023/06/02 19:01:26;;;;;;;57.03;52.78;;;;;;;-147.53;100.00;57128.34;10030432;29;20161;-84
2023/06/02 19:06:28;;;;;;;71.20;66.38;;;;;;;-147.53;100.00;57128.34;10042249;29;20122;-84
2023/06/02 19:11:29;;;;;;;88.40;82.05;;;;;;;-147.53;100.00;57128.34;10024551;29;20078;-86
2023/06/02 19:16:31;;;;;;;147.43;138.07;;;;;;;-147.53;100.00;57128.34;10036271;29;20520;-84
2023/06/02 19:21:34;;;;;;;238.45;223.73;;;;;;;-147.53;100.00;57128.34;10020463;29;20068;-83
2023/06/02 19:26:36;;;;;;;388.33;365.30;;;;;;;-147.53;100.00;57128.34;10017739;29;20057;-83
2023/06/02 19:31:40;;;;;;;459.98;432.13;;;;;;;-147.53;100.00;57128.34;10023741;29;20082;-84
2023/06/02 19:36:42;;;;;;;372.00;350.48;;;;;;;-147.53;100.00;57128.34;10022300;29;20057;-83
2023/06/02 19:41:44;;;;;;;376.55;354.67;;;;;;;-147.53;100.00;57128.34;10024705;29;20117;-84
2023/06/02 19:46:50;;;;;;;470.27;437.27;;;;;;;-147.53;100.00;57128.34;10020165;29;20077;-84
2023/06/02 19:51:57;;;;;;;542.97;497.52;;;;;;;-147.53;100.00;57128.34;10045348;29;20049;-84
2023/06/02 19:56:59;;;;;;;535.22;493.73;;;;;;;-147.53;100.00;57128.34;10030134;29;20114;-83
2023/06/02 20:02:04;;;;;;;474.70;432.85;;;;;;;-147.53;100.00;57128.34;10025354;29;20050;-84
2023/06/02 20:07:06;;;;;;;483.50;430.90;;;;;;;-147.53;100.00;57128.34;10043017;29;20050;-84
2023/06/02 20:12:08;;;;;;;477.05;418.70;;;;;;;-147.53;100.00;57128.34;10040470;29;20050;-83
2023/06/02 20:17:10;;;;;;;473.63;423.13;;;;;;;-147.53;100.00;57128.34;10046025;29;20064;-85
2023/06/02 20:22:12;;;;;;;569.05;406.20;;;;;;;-147.53;100.00;57128.34;10020070;29;20058;-83
2023/06/02 20:27:17;;;;;;;643.45;399.30;;;;;;;-147.53;100.00;57128.34;10028693;29;20084;-84
2023/06/02 20:32:19;;;;;;;574.08;403.75;;;;;;;-147.53;100.00;57128.34;9996414;29;20054;-83
2023/06/02 20:37:20;;;;;;;654.80;446.15;;;;;;;-147.53;100.00;57128.34;10013872;29;20058;-84
2023/06/02 20:42:26;;;;;;;786.95;424.85;;;;;;;-147.53;100.00;57128.34;10032258;29;20064;-84
2023/06/02 20:47:28;;;;;;;906.45;378.67;;;;;;;-147.53;100.00;57128.34;10029312;29;20058;-84
2023/06/02 20:52:30;;;;;;;;;;;;;;;-147.53;100.00;57128.34;10016327;29;20050;-85
2023/06/02 20:57:32;;;;;;;873.40;368.42;;;;;;;-147.53;100.00;57128.34;10018360;29;19935;-85
2023/06/02 21:02:33;;;;;;;856.45;364.20;;;;;;;-147.53;100.00;57128.34;10034563;29;20050;-85
2023/06/02 21:07:35;;;;;;;836.42;375.65;;;;;;;-147.53;100.00;57128.34;10019041;29;20054;-84
2023/06/02 21:12:41;;;;;;;853.08;409.17;;;;;;;-147.53;100.00;57128.34;10032078;29;20053;-84
2023/06/02 21:17:43;;;;;;;814.85;367.25;;;;;;;-147.53;100.00;57128.34;10026740;29;20516;-84
2023/06/02 21:22:47;;;;;;;884.17;360.00;;;;;;;-147.53;100.00;57128.34;10005210;29;20060;-84
2023/06/02 21:27:49;;;;;;;775.17;359.17;;;;;;;-147.53;100.00;57128.34;10031107;29;20466;-84
2023/06/02 21:32:50;;;;;;;846.33;363.90;;;;;;;-147.53;100.00;57128.34;10020057;29;20076;-85
2023/06/02 21:38:02;;;;;;;918.40;381.00;;;;;;;-147.53;100.00;57128.34;10016706;29;20057;-85
2023/06/02 21:43:04;;;;;;;592.28;352.13;;;;;;;-147.53;100.00;57128.34;10034472;29;20069;-85
2023/06/02 21:48:06;;;;;;;854.78;351.25;;;;;;;-147.53;100.00;57128.34;10006140;29;20080;-83
2023/06/02 21:53:09;;;;;;;946.63;377.83;;;;;;;-147.53;100.00;57128.34;10029125;29;20053;-84
2023/06/02 21:58:11;;;;;;;723.35;344.10;;;;;;;-147.53;100.00;57128.34;10030908;29;20066;-85
2023/06/02 22:03:12;;;;;;;418.77;377.70;;;;;;;-147.53;100.00;57128.34;10015145;29;20515;-84
2023/06/02 22:08:14;;;;;;;86.55;81.15;;;;;;;-147.53;100.00;57128.34;10035391;29;20077;-83
2023/06/02 22:13:16;;;;;;;189.48;176.05;;;;;;;-147.53;100.00;57128.34;10019509;29;20108;-84
2023/06/02 22:18:17;;;;;;;620.53;326.35;;;;;;;-147.53;100.00;57128.34;10014755;29;20057;-84
2023/06/02 22:23:19;;;;;;;717.08;327.98;;;;;;;-147.53;100.00;57128.34;10002848;29;20053;-84
2023/06/02 22:28:21;;;;;;;750.10;331.63;;;;;;;-147.53;100.00;57128.34;10009519;29;20153;-84